Pagrindinis puslapis
METAR-TAF:

METAR-TAF

Oro uostai :

Villamontes, Bolivija

platuma: 21-15S, ilguma: 063-27W, Aukštis: 398 m

Dabartinis oras

Ataskaita buvo paskelbta 13 valandos ir 7 minutes, ne 20:00 UTC
Vėjas 15 kt iš Pietų su gūsio iki 28 kt
Temperatūra 35°C
Drėgmė 34%
Slėgis 1008 hPa
Matomumas 10 km arba daugiau
Mažai debesys ne aukštis 2500 ft

METAR: SLVM 232000Z 18015G28KT 9999 FEW025 35/17 Q1008

Laikas: 05:07 (09:07 UTC)


TAF: trūkstamas

Orai ataskaitas ir orų prognozės (METAR, TAF).

turimą stotys yra geltonos ir raudonos taškus žemėlapyje.

Perkelti pele per norėdami pamatyti stoties vardą.

Tada spustelėkite, norėdami matyti oro stebėjimo ir prognozės.

Norėdami pakeisti žemėlapį: spustelėkite ant žalios mygtukų su juodo kryžiaus žemyn,; žalią mygtuką su brūkšneliu, jei norite nutolinti; arba žalių rodyklių gretimoms žemėlapius.


METAR-TAF: